createdAt,value
2023-03-05T00:00:00.885Z,7.5
2023-03-05T00:01:05.037Z,7.5
2023-03-05T00:02:00.810Z,7.5
2023-03-05T00:03:00.839Z,7.5
2023-03-05T00:04:01.846Z,7.4
2023-03-05T00:05:00.828Z,7.4
2023-03-05T00:06:00.800Z,7.4
2023-03-05T00:07:00.846Z,7.4
2023-03-05T00:08:01.087Z,7.4
2023-03-05T00:09:01.065Z,7.3
2023-03-05T00:10:01.866Z,7.3
2023-03-05T00:11:02.294Z,7.3
2023-03-05T00:12:00.789Z,7.3
2023-03-05T00:13:00.831Z,7.3
2023-03-05T00:14:01.737Z,7.2
2023-03-05T00:15:00.832Z,7.2
2023-03-05T00:16:02.720Z,7.2
2023-03-05T00:17:00.824Z,7.2
2023-03-05T00:18:00.845Z,7.2
2023-03-05T00:19:00.874Z,7.2
2023-03-05T00:20:02.436Z,7.2
2023-03-05T00:21:00.985Z,7.2
2023-03-05T00:22:00.813Z,7.2
2023-03-05T00:23:00.927Z,7.2
2023-03-05T00:24:01.695Z,7.2
2023-03-05T00:25:01.151Z,7.2
2023-03-05T00:26:01.283Z,7.2
2023-03-05T00:27:00.841Z,7.2
2023-03-05T00:28:00.848Z,7.1
2023-03-05T00:29:00.882Z,7.1
2023-03-05T00:30:00.845Z,7.1
2023-03-05T00:31:00.939Z,7.1
2023-03-05T00:32:00.872Z,7.1
2023-03-05T00:33:00.845Z,7.1
2023-03-05T00:34:02.872Z,7.0
2023-03-05T00:35:00.840Z,7.0
2023-03-05T00:36:04.143Z,7.0
2023-03-05T00:37:00.832Z,7.0
2023-03-05T00:38:00.784Z,6.9
2023-03-05T00:39:00.938Z,6.9
2023-03-05T00:40:01.179Z,6.9
2023-03-05T00:41:01.347Z,6.9
2023-03-05T00:42:00.902Z,6.9
2023-03-05T00:43:00.838Z,6.9
2023-03-05T00:44:00.800Z,6.9
2023-03-05T00:45:00.823Z,6.9
2023-03-05T00:46:02.042Z,6.9
2023-03-05T00:47:00.834Z,6.9
2023-03-05T00:48:01.376Z,6.9
2023-03-05T00:49:00.931Z,6.8
2023-03-05T00:50:01.149Z,6.8
2023-03-05T00:51:00.786Z,6.8
2023-03-05T00:52:00.836Z,6.8
2023-03-05T00:53:00.886Z,6.8
2023-03-05T00:54:01.019Z,6.8
2023-03-05T00:55:00.803Z,6.8
2023-03-05T00:56:00.833Z,6.8
2023-03-05T00:57:00.842Z,6.8
2023-03-05T01:00:00.818Z,6.7
2023-03-05T01:01:01.132Z,6.8
2023-03-05T01:02:00.845Z,6.8
2023-03-05T01:03:01.172Z,6.8
2023-03-05T01:04:00.950Z,6.7
2023-03-05T01:05:00.854Z,6.8
2023-03-05T01:06:03.228Z,6.8
2023-03-05T01:07:00.868Z,6.8
2023-03-05T01:08:01.046Z,6.8
2023-03-05T01:09:00.814Z,6.7
2023-03-05T01:10:00.801Z,6.7
2023-03-05T01:11:01.141Z,6.7
2023-03-05T01:12:00.812Z,6.7
2023-03-05T01:13:00.830Z,6.7
2023-03-05T01:14:00.819Z,6.7
2023-03-05T01:15:01.107Z,6.7
2023-03-05T01:16:01.368Z,6.7
2023-03-05T01:17:00.953Z,6.7
2023-03-05T01:18:00.854Z,6.7
2023-03-05T01:19:00.805Z,6.7
2023-03-05T01:20:00.819Z,6.7
2023-03-05T01:21:01.034Z,6.7
2023-03-05T01:22:00.826Z,6.7
2023-03-05T01:23:00.874Z,6.7
2023-03-05T01:24:00.943Z,6.7
2023-03-05T01:25:00.795Z,6.7
2023-03-05T01:26:00.847Z,6.7
2023-03-05T01:27:00.873Z,6.6
2023-03-05T01:28:00.800Z,6.6
2023-03-05T01:29:00.943Z,6.6
2023-03-05T01:30:00.795Z,6.6
2023-03-05T01:31:00.784Z,6.6
2023-03-05T01:32:00.830Z,6.6
2023-03-05T01:33:00.832Z,6.6
2023-03-05T01:34:00.842Z,6.5
2023-03-05T01:35:01.137Z,6.5
2023-03-05T01:36:00.819Z,6.5
2023-03-05T01:37:00.866Z,6.5
2023-03-05T01:38:00.775Z,6.5
2023-03-05T01:39:00.776Z,6.5
2023-03-05T01:40:01.045Z,6.5
2023-03-05T01:41:00.796Z,6.5
2023-03-05T01:42:01.151Z,6.5
2023-03-05T01:43:08.649Z,6.5
2023-03-05T01:44:00.946Z,6.5
2023-03-05T01:45:08.225Z,6.4
2023-03-05T01:46:10.728Z,6.4
2023-03-05T01:47:00.840Z,6.4
2023-03-05T01:48:00.860Z,6.4
2023-03-05T01:49:03.105Z,6.4
2023-03-05T01:50:00.901Z,6.4
2023-03-05T01:51:00.852Z,6.4
2023-03-05T01:52:00.800Z,6.4
2023-03-05T01:53:02.962Z,6.4
2023-03-05T01:54:01.207Z,6.4
2023-03-05T01:55:03.171Z,6.4
2023-03-05T01:56:00.825Z,6.4
2023-03-05T01:57:04.093Z,6.4
2023-03-05T01:58:05.625Z,6.4
2023-03-05T01:59:01.088Z,6.4
2023-03-05T02:00:05.863Z,6.4
2023-03-05T02:01:01.012Z,6.4
2023-03-05T02:02:00.805Z,6.4
2023-03-05T02:03:03.641Z,6.4
2023-03-05T02:04:01.427Z,6.3
2023-03-05T02:05:03.763Z,6.3
2023-03-05T02:06:00.806Z,6.3
2023-03-05T02:07:01.336Z,6.3
2023-03-05T02:08:02.893Z,6.3
2023-03-05T02:09:00.837Z,6.3
2023-03-05T02:10:00.831Z,6.3
2023-03-05T02:11:00.894Z,6.3
2023-03-05T02:12:00.822Z,6.3
2023-03-05T02:13:02.814Z,6.3
2023-03-05T02:14:01.583Z,6.3
2023-03-05T02:15:00.814Z,6.2
2023-03-05T02:16:01.216Z,6.2
2023-03-05T02:17:01.198Z,6.2
2023-03-05T02:18:00.939Z,6.2
2023-03-05T02:19:01.552Z,6.1
2023-03-05T02:20:05.805Z,6.1
2023-03-05T02:21:01.912Z,6.1
2023-03-05T02:22:00.801Z,6.1
2023-03-05T02:23:00.822Z,6.1
2023-03-05T02:24:00.817Z,6.0
2023-03-05T02:25:00.818Z,6.0
2023-03-05T02:26:01.552Z,5.9
2023-03-05T02:27:01.601Z,5.9
2023-03-05T02:28:00.768Z,5.9
2023-03-05T02:29:02.046Z,5.8
2023-03-05T02:30:01.483Z,5.8
2023-03-05T02:31:00.829Z,5.8
2023-03-05T02:32:01.406Z,5.8
2023-03-05T02:33:01.234Z,5.8
2023-03-05T02:34:00.790Z,5.8
2023-03-05T02:35:00.830Z,5.8
2023-03-05T02:36:00.821Z,5.8
2023-03-05T02:37:01.142Z,5.7
2023-03-05T02:38:00.860Z,5.8
2023-03-05T02:39:00.808Z,5.7
2023-03-05T02:40:00.883Z,5.7
2023-03-05T02:41:00.814Z,5.7
2023-03-05T02:42:00.930Z,5.7
2023-03-05T02:43:01.122Z,5.7
2023-03-05T02:44:00.819Z,5.7
2023-03-05T02:45:01.014Z,5.7
2023-03-05T02:46:00.905Z,5.7
2023-03-05T02:47:00.813Z,5.7
2023-03-05T02:48:00.800Z,5.7
2023-03-05T02:49:00.812Z,5.6
2023-03-05T02:50:00.822Z,5.6
2023-03-05T02:51:02.042Z,5.6
2023-03-05T02:52:00.809Z,5.6
2023-03-05T02:53:00.762Z,5.6
2023-03-05T02:54:00.944Z,5.6
2023-03-05T02:55:00.780Z,5.6
2023-03-05T02:56:00.814Z,5.6
2023-03-05T02:57:00.776Z,5.6
2023-03-05T02:58:00.862Z,5.6
2023-03-05T02:59:00.807Z,5.5
2023-03-05T03:00:00.842Z,5.5
2023-03-05T03:01:00.889Z,5.5
2023-03-05T03:02:00.822Z,5.5
2023-03-05T03:03:00.842Z,5.5
2023-03-05T03:04:00.781Z,5.5
2023-03-05T03:05:00.919Z,5.5
2023-03-05T03:06:00.847Z,5.4
2023-03-05T03:07:00.884Z,5.4
2023-03-05T03:08:00.909Z,5.4
2023-03-05T03:09:00.817Z,5.4
2023-03-05T03:10:00.998Z,5.4
2023-03-05T03:11:09.377Z,5.4
2023-03-05T03:12:01.411Z,5.4
2023-03-05T03:13:01.028Z,5.4
2023-03-05T03:14:00.801Z,5.4
2023-03-05T03:15:00.810Z,5.4
2023-03-05T03:16:03.239Z,5.4
2023-03-05T03:17:00.841Z,5.4
2023-03-05T03:18:00.819Z,5.4
2023-03-05T03:19:00.843Z,5.4
2023-03-05T03:20:01.172Z,5.4
2023-03-05T03:21:01.490Z,5.4
2023-03-05T03:22:00.892Z,5.4
2023-03-05T03:23:00.875Z,5.4
2023-03-05T03:24:00.861Z,5.4
2023-03-05T03:25:00.916Z,5.4
2023-03-05T03:26:00.809Z,5.4
2023-03-05T03:27:01.051Z,5.4
2023-03-05T03:28:00.840Z,5.5
2023-03-05T03:29:00.785Z,5.5
2023-03-05T03:30:00.838Z,5.4
2023-03-05T03:31:00.847Z,5.4
2023-03-05T03:32:00.886Z,5.4
2023-03-05T03:33:00.824Z,5.4
2023-03-05T03:34:00.829Z,5.4
2023-03-05T03:35:00.931Z,5.4
2023-03-05T03:36:00.912Z,5.4
2023-03-05T03:37:00.825Z,5.4
2023-03-05T03:38:00.905Z,5.4
2023-03-05T03:39:00.822Z,5.4
2023-03-05T03:40:00.909Z,5.4
2023-03-05T03:41:00.798Z,5.4
2023-03-05T03:42:00.793Z,5.4
2023-03-05T03:43:00.833Z,5.4
2023-03-05T03:44:00.820Z,5.4
2023-03-05T03:45:00.875Z,5.3
2023-03-05T03:46:02.951Z,5.3
2023-03-05T03:47:00.846Z,5.3
2023-03-05T03:48:00.833Z,5.3
2023-03-05T03:49:00.939Z,5.3
2023-03-05T03:50:00.809Z,5.2
2023-03-05T03:51:03.441Z,5.2
2023-03-05T03:52:00.817Z,5.2
2023-03-05T03:53:00.822Z,5.2
2023-03-05T03:54:00.906Z,5.2
2023-03-05T03:55:00.821Z,5.2
2023-03-05T03:56:00.838Z,5.2
2023-03-05T03:57:00.792Z,5.1
2023-03-05T03:58:00.830Z,5.1
2023-03-05T03:59:00.807Z,5.1
2023-03-05T04:00:00.866Z,5.1
2023-03-05T04:01:00.780Z,5.2
2023-03-05T04:02:00.891Z,5.2
2023-03-05T04:03:00.895Z,5.2
2023-03-05T04:04:00.924Z,5.1
2023-03-05T04:05:00.826Z,5.1
2023-03-05T04:06:00.873Z,5.1
2023-03-05T04:07:00.827Z,5.1
2023-03-05T04:08:00.823Z,5.1
2023-03-05T04:09:00.850Z,5.1
2023-03-05T04:10:00.834Z,5.1
2023-03-05T04:11:00.990Z,5.0
2023-03-05T04:12:00.807Z,5.0
2023-03-05T04:13:00.803Z,5.0
2023-03-05T04:14:00.908Z,5.0
2023-03-05T04:15:00.866Z,4.9
2023-03-05T04:16:00.829Z,4.9
2023-03-05T04:17:00.785Z,4.9
2023-03-05T04:18:00.816Z,4.9
2023-03-05T04:19:00.911Z,4.9
2023-03-05T04:20:00.919Z,4.9
2023-03-05T04:21:00.809Z,4.9
2023-03-05T04:22:00.915Z,4.9
2023-03-05T04:23:00.858Z,4.9
2023-03-05T04:24:00.804Z,4.9
2023-03-05T04:25:00.831Z,4.9
2023-03-05T04:26:00.944Z,4.9
2023-03-05T04:27:00.808Z,4.9
2023-03-05T04:28:00.850Z,4.9
2023-03-05T04:29:00.824Z,4.9
2023-03-05T04:30:00.834Z,4.9
2023-03-05T04:31:00.971Z,5.0
2023-03-05T04:32:01.160Z,5.0
2023-03-05T04:33:00.883Z,5.0
2023-03-05T04:34:00.853Z,5.0
2023-03-05T04:35:00.830Z,5.0
2023-03-05T04:36:00.804Z,5.0
2023-03-05T04:37:00.800Z,5.0
2023-03-05T04:38:00.841Z,5.0
2023-03-05T04:39:00.825Z,5.0
2023-03-05T04:40:00.806Z,5.0
2023-03-05T04:41:00.788Z,5.0
2023-03-05T04:42:00.773Z,5.0
2023-03-05T04:43:00.805Z,5.0
2023-03-05T04:44:00.914Z,5.0
2023-03-05T04:45:00.791Z,5.1
2023-03-05T04:46:00.784Z,5.1
2023-03-05T04:47:00.786Z,5.0
2023-03-05T04:48:00.800Z,5.0
2023-03-05T04:49:00.800Z,5.0
2023-03-05T04:50:00.770Z,5.0
2023-03-05T04:51:00.816Z,5.0
2023-03-05T04:52:00.792Z,5.0
2023-03-05T04:53:00.825Z,5.0
2023-03-05T04:54:00.743Z,5.0
2023-03-05T04:55:00.965Z,5.0
2023-03-05T04:56:00.803Z,5.0
2023-03-05T04:57:00.787Z,5.0
2023-03-05T04:58:00.805Z,5.0
2023-03-05T04:59:00.802Z,5.0
2023-03-05T05:00:01.091Z,5.0
2023-03-05T05:01:01.168Z,5.0
2023-03-05T05:02:00.785Z,5.1
2023-03-05T05:03:00.827Z,5.1
2023-03-05T05:04:00.770Z,5.1
2023-03-05T05:05:00.789Z,5.1
2023-03-05T05:06:01.228Z,5.1
2023-03-05T05:07:00.820Z,5.1
2023-03-05T05:08:00.786Z,5.1
2023-03-05T05:09:00.811Z,5.1
2023-03-05T05:10:00.815Z,5.1
2023-03-05T05:11:02.449Z,5.1
2023-03-05T05:12:00.774Z,5.1
2023-03-05T05:13:00.823Z,5.1
2023-03-05T05:14:00.901Z,5.1
2023-03-05T05:15:01.285Z,5.1
2023-03-05T05:16:00.997Z,5.1
2023-03-05T05:17:01.107Z,5.1
2023-03-05T05:18:00.852Z,5.1
2023-03-05T05:19:00.881Z,5.1
2023-03-05T05:20:01.004Z,5.1
2023-03-05T05:21:00.800Z,5.1
2023-03-05T05:22:00.819Z,5.1
2023-03-05T05:23:00.813Z,5.1
2023-03-05T05:24:00.856Z,5.1
2023-03-05T05:25:01.272Z,5.1
2023-03-05T05:26:02.433Z,5.1
2023-03-05T05:27:00.824Z,5.0
2023-03-05T05:28:00.918Z,5.0
2023-03-05T05:29:00.836Z,5.0
2023-03-05T05:30:01.078Z,5.0
2023-03-05T05:31:05.481Z,5.0
2023-03-05T05:32:01.453Z,5.0
2023-03-05T05:33:00.790Z,5.0
2023-03-05T05:34:00.801Z,5.0
2023-03-05T05:35:00.914Z,4.9
2023-03-05T05:36:01.947Z,4.9
2023-03-05T05:37:00.790Z,4.9
2023-03-05T05:38:00.809Z,4.9
2023-03-05T05:39:00.955Z,4.9
2023-03-05T05:40:00.861Z,4.9
2023-03-05T05:41:01.962Z,4.9
2023-03-05T05:42:00.952Z,4.9
2023-03-05T05:43:00.788Z,4.9
2023-03-05T05:44:00.872Z,4.9
2023-03-05T05:45:00.849Z,4.9
2023-03-05T05:46:02.002Z,5.0
2023-03-05T05:47:00.858Z,5.0
2023-03-05T05:48:00.782Z,5.0
2023-03-05T05:49:00.893Z,5.0
2023-03-05T05:50:00.973Z,5.1
2023-03-05T05:51:05.529Z,5.1
2023-03-05T05:52:00.844Z,5.1
2023-03-05T05:53:00.795Z,5.1
2023-03-05T05:54:00.800Z,5.1
2023-03-05T05:55:00.844Z,5.2
2023-03-05T05:56:02.645Z,5.2
2023-03-05T05:57:01.062Z,5.2
2023-03-05T05:58:00.828Z,5.2
2023-03-05T05:59:00.800Z,5.2
2023-03-05T06:00:00.913Z,5.2
2023-03-05T06:01:01.233Z,5.2
2023-03-05T06:02:00.926Z,5.2
2023-03-05T06:03:00.881Z,5.2
2023-03-05T06:04:01.025Z,5.2
2023-03-05T06:05:00.796Z,5.3
2023-03-05T06:06:00.809Z,5.3
2023-03-05T06:07:00.805Z,5.3
2023-03-05T06:08:00.801Z,5.3
2023-03-05T06:09:01.124Z,5.3
2023-03-05T06:10:01.231Z,5.4
2023-03-05T06:11:00.795Z,5.4
2023-03-05T06:12:01.029Z,5.4
2023-03-05T06:13:00.899Z,5.5
2023-03-05T06:14:00.776Z,5.5
2023-03-05T06:15:00.821Z,5.5
2023-03-05T06:16:02.433Z,5.5
2023-03-05T06:17:01.030Z,5.5
2023-03-05T06:18:00.972Z,5.6
2023-03-05T06:19:02.429Z,5.6
2023-03-05T06:20:00.850Z,5.6
2023-03-05T06:21:01.941Z,5.6
2023-03-05T06:22:00.803Z,5.6
2023-03-05T06:23:00.835Z,5.6
2023-03-05T06:24:00.822Z,5.6
2023-03-05T06:25:00.844Z,5.6
2023-03-05T06:26:01.949Z,5.6
2023-03-05T06:27:00.848Z,5.6
2023-03-05T06:28:00.825Z,5.6
2023-03-05T06:29:00.874Z,5.6
2023-03-05T06:30:01.142Z,5.6
2023-03-05T06:31:00.847Z,5.6
2023-03-05T06:32:00.819Z,5.6
2023-03-05T06:33:00.863Z,5.6
2023-03-05T06:34:00.910Z,5.6
2023-03-05T06:35:01.046Z,5.6
2023-03-05T06:36:02.754Z,5.6
2023-03-05T06:37:00.808Z,5.6
2023-03-05T06:38:00.820Z,5.6
2023-03-05T06:39:00.950Z,5.6
2023-03-05T06:40:00.800Z,5.6
2023-03-05T06:41:01.513Z,5.6
2023-03-05T06:42:00.827Z,5.6
2023-03-05T06:43:00.796Z,5.6
2023-03-05T06:44:01.197Z,5.7
2023-03-05T06:45:00.907Z,5.7
2023-03-05T06:46:01.712Z,5.7
2023-03-05T06:47:00.840Z,5.7
2023-03-05T06:48:00.848Z,5.8
2023-03-05T06:49:01.367Z,5.8
2023-03-05T06:50:00.900Z,5.8
2023-03-05T06:51:00.956Z,5.8
2023-03-05T06:52:00.768Z,5.9
2023-03-05T06:53:00.978Z,5.9
2023-03-05T06:54:02.757Z,5.9
2023-03-05T06:55:00.819Z,5.9
2023-03-05T06:56:00.849Z,6.0
2023-03-05T06:57:00.938Z,6.0
2023-03-05T06:58:00.807Z,6.1
2023-03-05T06:59:00.854Z,6.1
2023-03-05T07:00:00.785Z,6.1
2023-03-05T07:01:00.860Z,6.1
2023-03-05T07:02:00.869Z,6.2
2023-03-05T07:03:00.833Z,6.2
2023-03-05T07:04:00.914Z,6.3
2023-03-05T07:05:00.808Z,6.4
2023-03-05T07:06:03.156Z,6.5
2023-03-05T07:07:00.851Z,6.7
2023-03-05T07:08:00.785Z,6.8
2023-03-05T07:09:01.276Z,6.9
2023-03-05T07:10:00.915Z,7.1
2023-03-05T07:11:00.806Z,7.3
2023-03-05T07:12:00.979Z,7.4
2023-03-05T07:13:00.811Z,7.6
2023-03-05T07:14:01.193Z,7.8
2023-03-05T07:15:01.120Z,8.0
2023-03-05T07:16:04.166Z,8.2
2023-03-05T07:17:00.782Z,8.3
2023-03-05T07:18:00.851Z,8.5
2023-03-05T07:19:01.821Z,8.7
2023-03-05T07:20:00.779Z,8.9
2023-03-05T07:21:02.925Z,9.0
2023-03-05T07:22:00.832Z,9.2
2023-03-05T07:23:00.980Z,9.3
2023-03-05T07:24:02.008Z,9.5
2023-03-05T07:25:00.955Z,9.6
2023-03-05T07:26:01.594Z,9.7
2023-03-05T07:27:00.838Z,9.8
2023-03-05T07:28:00.786Z,9.9
2023-03-05T07:29:00.865Z,10.0
2023-03-05T07:30:00.817Z,10.1
2023-03-05T07:31:02.484Z,10.3
2023-03-05T07:32:00.859Z,10.4
2023-03-05T07:33:00.803Z,10.6
2023-03-05T07:34:01.905Z,10.8
2023-03-05T07:35:00.912Z,11.0
2023-03-05T07:36:00.874Z,11.2
2023-03-05T07:37:00.774Z,11.4
2023-03-05T07:38:00.798Z,11.6
2023-03-05T07:39:00.918Z,11.8
2023-03-05T07:40:00.916Z,12.0
2023-03-05T07:41:02.090Z,12.3
2023-03-05T07:42:00.838Z,12.5
2023-03-05T07:43:00.792Z,12.7
2023-03-05T07:44:00.807Z,13.0
2023-03-05T07:45:00.779Z,13.3
2023-03-05T07:46:05.124Z,13.6
2023-03-05T07:47:00.789Z,14.0
2023-03-05T07:48:00.786Z,14.3
2023-03-05T07:49:01.020Z,14.5
2023-03-05T07:50:01.068Z,14.7
2023-03-05T07:51:01.770Z,14.9
2023-03-05T07:52:00.827Z,15.1
2023-03-05T07:53:00.809Z,15.4
2023-03-05T07:54:00.915Z,15.6
2023-03-05T07:55:00.803Z,15.9
2023-03-05T07:56:01.045Z,16.1
2023-03-05T07:57:00.776Z,16.3
2023-03-05T07:58:00.804Z,16.4
2023-03-05T07:59:02.304Z,16.7
2023-03-05T08:00:00.797Z,17.0
2023-03-05T08:01:00.899Z,17.3
2023-03-05T08:02:00.914Z,17.5
2023-03-05T08:03:00.854Z,17.6
2023-03-05T08:04:01.753Z,17.9
2023-03-05T08:05:00.810Z,18.2
2023-03-05T08:06:03.930Z,18.3
2023-03-05T08:07:00.807Z,18.3
2023-03-05T08:08:00.785Z,18.3
2023-03-05T08:09:00.821Z,18.4
2023-03-05T08:10:00.818Z,18.5
2023-03-05T08:11:03.363Z,18.5
2023-03-05T08:12:00.918Z,18.6
2023-03-05T08:13:01.121Z,18.6
2023-03-05T08:14:00.810Z,18.8
2023-03-05T08:15:00.800Z,18.9
2023-03-05T08:16:05.296Z,19.0
2023-03-05T08:17:00.812Z,19.2
2023-03-05T08:18:00.956Z,19.5
2023-03-05T08:19:00.925Z,19.7
2023-03-05T08:20:00.888Z,20.0
2023-03-05T08:21:01.162Z,20.3
2023-03-05T08:22:00.772Z,20.5
2023-03-05T08:23:00.778Z,20.7
2023-03-05T08:24:02.146Z,21.0
2023-03-05T08:25:01.851Z,21.2
2023-03-05T08:26:00.796Z,21.3
2023-03-05T08:27:00.819Z,21.4
2023-03-05T08:28:00.809Z,21.5
2023-03-05T08:29:00.841Z,21.7
2023-03-05T08:30:01.080Z,22.0
2023-03-05T08:31:00.843Z,22.1
2023-03-05T08:32:00.871Z,22.2
2023-03-05T08:33:00.799Z,22.3
2023-03-05T08:34:01.472Z,22.2
2023-03-05T08:35:00.873Z,22.1
2023-03-05T08:36:00.813Z,22.1
2023-03-05T08:37:00.821Z,22.5
2023-03-05T08:38:00.829Z,22.9
2023-03-05T08:39:00.807Z,23.2
2023-03-05T08:40:00.936Z,23.5
2023-03-05T08:41:01.018Z,24.0
2023-03-05T08:42:00.915Z,24.2
2023-03-05T08:43:00.824Z,24.4
2023-03-05T08:44:00.841Z,24.4
2023-03-05T08:45:00.897Z,24.5
2023-03-05T08:46:01.594Z,24.4
2023-03-05T08:47:00.840Z,24.3
2023-03-05T08:48:00.773Z,24.5
2023-03-05T08:49:00.809Z,24.6
2023-03-05T08:50:00.848Z,24.6
2023-03-05T08:51:05.518Z,24.5
2023-03-05T08:52:00.802Z,24.7
2023-03-05T08:53:00.869Z,24.9
2023-03-05T08:54:00.873Z,25.1
2023-03-05T08:55:00.850Z,25.5
2023-03-05T08:56:00.864Z,25.4
2023-03-05T08:57:00.917Z,25.4
2023-03-05T08:58:00.833Z,25.4
2023-03-05T08:59:01.387Z,25.4
2023-03-05T09:00:00.884Z,25.4
2023-03-05T09:01:00.821Z,25.3
2023-03-05T09:02:01.399Z,25.3
2023-03-05T09:03:00.877Z,25.1
2023-03-05T09:04:00.868Z,25.1
2023-03-05T09:05:00.858Z,24.8
2023-03-05T09:06:01.432Z,24.6
2023-03-05T09:07:00.771Z,24.2
2023-03-05T09:08:00.839Z,24.0
2023-03-05T09:09:00.783Z,23.9
2023-03-05T09:10:00.878Z,24.0
2023-03-05T09:11:01.827Z,24.2
2023-03-05T09:12:01.165Z,24.7
2023-03-05T09:13:00.820Z,24.7
2023-03-05T09:14:01.805Z,24.5
2023-03-05T09:15:00.812Z,24.4
2023-03-05T09:16:02.490Z,24.7
2023-03-05T09:17:01.362Z,24.7
2023-03-05T09:18:00.979Z,24.6
2023-03-05T09:19:00.862Z,24.8
2023-03-05T09:20:00.974Z,24.8
2023-03-05T09:21:04.097Z,24.9
2023-03-05T09:22:00.824Z,25.2
2023-03-05T09:23:00.899Z,25.3
2023-03-05T09:24:00.798Z,25.3
2023-03-05T09:25:00.836Z,25.4
2023-03-05T09:26:01.016Z,25.7
2023-03-05T09:27:00.813Z,25.5
2023-03-05T09:28:00.815Z,25.4
2023-03-05T09:29:00.842Z,25.4
2023-03-05T09:30:01.135Z,25.2
2023-03-05T09:31:01.467Z,25.2
2023-03-05T09:32:00.908Z,25.3
2023-03-05T09:33:01.542Z,24.9
2023-03-05T09:34:01.007Z,24.8
2023-03-05T09:35:00.810Z,24.5
2023-03-05T09:36:01.512Z,24.2
2023-03-05T09:37:01.961Z,24.3
2023-03-05T09:38:01.045Z,24.2
2023-03-05T09:39:00.872Z,24.1
2023-03-05T09:40:00.822Z,24.4
2023-03-05T09:41:04.629Z,24.6
2023-03-05T09:42:04.150Z,24.8
2023-03-05T09:43:00.780Z,24.9
2023-03-05T09:44:00.832Z,24.8
2023-03-05T09:45:00.849Z,24.6
2023-03-05T09:46:08.746Z,24.7
2023-03-05T09:47:10.699Z,24.8
2023-03-05T09:48:00.784Z,24.5
2023-03-05T09:49:10.689Z,24.3
2023-03-05T09:50:04.032Z,24.3
2023-03-05T09:51:02.334Z,24.1
2023-03-05T09:52:04.471Z,24.2
2023-03-05T09:53:00.772Z,24.1
2023-03-05T09:54:06.032Z,23.6
2023-03-05T09:55:02.032Z,23.4
2023-03-05T09:56:03.595Z,23.2
2023-03-05T09:57:03.159Z,23.3
2023-03-05T09:58:04.914Z,23.3
2023-03-05T09:59:04.157Z,23.2
2023-03-05T10:00:02.678Z,23.0
2023-03-05T10:01:04.970Z,23.0
2023-03-05T10:02:03.826Z,23.3
2023-03-05T10:03:04.182Z,23.1
2023-03-05T10:04:05.651Z,22.9
2023-03-05T10:05:01.828Z,22.8
2023-03-05T10:06:00.824Z,22.8
2023-03-05T10:07:10.670Z,22.7
2023-03-05T10:08:03.582Z,22.8
2023-03-05T10:09:06.144Z,23.0
2023-03-05T10:10:04.274Z,23.0
2023-03-05T10:11:04.231Z,23.0
2023-03-05T10:12:06.365Z,23.2
2023-03-05T10:13:04.611Z,23.1
2023-03-05T10:14:01.327Z,22.8
2023-03-05T10:15:00.930Z,22.5
2023-03-05T10:16:08.328Z,22.2
2023-03-05T10:17:09.961Z,22.1
2023-03-05T10:18:10.662Z,22.2
2023-03-05T10:19:05.094Z,22.0
2023-03-05T10:20:01.823Z,21.9
2023-03-05T10:21:08.208Z,22.0
2023-03-05T10:22:00.798Z,22.3
2023-03-05T10:23:04.741Z,22.4
2023-03-05T10:24:10.690Z,22.4
2023-03-05T10:25:01.806Z,22.2
2023-03-05T10:26:00.748Z,22.3
2023-03-05T10:27:07.099Z,22.3
2023-03-05T10:28:04.117Z,21.8
2023-03-05T10:29:10.669Z,21.6
2023-03-05T10:30:07.182Z,21.5
2023-03-05T10:31:00.817Z,21.3
2023-03-05T10:32:08.429Z,21.6
2023-03-05T10:33:00.837Z,21.6
2023-03-05T10:34:10.652Z,21.6
2023-03-05T10:35:00.839Z,21.5
2023-03-05T10:36:10.653Z,21.4
2023-03-05T10:37:00.783Z,21.3
2023-03-05T10:38:04.151Z,21.1
2023-03-05T10:39:10.644Z,21.1
2023-03-05T10:40:01.785Z,21.0
2023-03-05T10:41:07.121Z,20.9
2023-03-05T10:42:10.686Z,21.1
2023-03-05T10:43:01.833Z,21.2
2023-03-05T10:44:07.775Z,21.3
2023-03-05T10:45:13.221Z,21.1
2023-03-05T10:46:02.332Z,21.2
2023-03-05T10:47:01.889Z,21.2
2023-03-05T10:48:10.675Z,21.0
2023-03-05T10:49:04.378Z,21.1
2023-03-05T10:50:00.863Z,21.0
2023-03-05T10:51:07.547Z,21.0
2023-03-05T10:52:10.654Z,21.1
2023-03-05T10:53:01.842Z,21.1
2023-03-05T10:54:08.872Z,21.1
2023-03-05T10:55:00.811Z,20.9
2023-03-05T10:56:01.475Z,20.8
2023-03-05T10:57:02.992Z,20.6
2023-03-05T10:58:09.425Z,20.6
2023-03-05T10:59:00.818Z,20.7
2023-03-05T11:00:07.193Z,20.8
2023-03-05T11:01:04.829Z,20.9
2023-03-05T11:02:03.178Z,21.1
2023-03-05T11:03:03.769Z,21.2
2023-03-05T11:04:02.692Z,21.2
2023-03-05T11:05:00.799Z,21.3
2023-03-05T11:06:01.622Z,21.3
2023-03-05T11:07:05.625Z,21.1
2023-03-05T11:08:10.662Z,21.2
2023-03-05T11:09:10.648Z,21.1
2023-03-05T11:10:03.572Z,20.9
2023-03-05T11:11:09.338Z,20.5
2023-03-05T11:12:10.647Z,20.7
2023-03-05T11:13:10.682Z,20.9
2023-03-05T11:14:01.716Z,21.0
2023-03-05T11:15:00.774Z,21.0
2023-03-05T11:16:02.165Z,20.6
2023-03-05T11:17:01.987Z,20.5
2023-03-05T11:18:05.230Z,20.5
2023-03-05T11:19:10.686Z,20.7
2023-03-05T11:20:10.623Z,21.0
2023-03-05T11:21:10.665Z,20.9
2023-03-05T11:22:10.687Z,21.3
2023-03-05T11:23:02.836Z,21.5
2023-03-05T11:24:02.654Z,21.5
2023-03-05T11:25:01.911Z,21.6
2023-03-05T11:26:02.686Z,21.8
2023-03-05T11:27:00.856Z,22.0
2023-03-05T11:28:01.484Z,21.6
2023-03-05T11:29:01.516Z,21.4
2023-03-05T11:30:01.400Z,21.5
2023-03-05T11:31:00.771Z,21.4
2023-03-05T11:32:10.697Z,21.5
2023-03-05T11:33:10.267Z,21.6
2023-03-05T11:34:05.630Z,21.5
2023-03-05T11:35:00.904Z,21.9
2023-03-05T11:36:10.664Z,22.0
2023-03-05T11:37:01.787Z,22.1
2023-03-05T11:38:02.396Z,22.1
2023-03-05T11:39:10.492Z,22.3
2023-03-05T11:40:05.342Z,22.5
2023-03-05T11:41:00.837Z,22.7
2023-03-05T11:42:03.892Z,22.6
2023-03-05T11:43:01.113Z,22.5
2023-03-05T11:44:02.238Z,22.4
2023-03-05T11:45:01.899Z,22.3
2023-03-05T11:46:01.699Z,22.4
2023-03-05T11:47:03.236Z,22.4
2023-03-05T11:48:05.389Z,22.8
2023-03-05T11:49:01.610Z,22.7
2023-03-05T11:50:10.646Z,22.9
2023-03-05T11:51:06.760Z,23.1
2023-03-05T11:52:10.688Z,23.1
2023-03-05T11:53:00.803Z,23.0
2023-03-05T11:54:04.949Z,23.3
2023-03-05T11:55:10.685Z,23.4
2023-03-05T11:56:04.219Z,23.4
2023-03-05T11:57:01.515Z,23.2
2023-03-05T11:58:10.656Z,23.1
2023-03-05T11:59:04.361Z,23.1
2023-03-05T12:00:03.406Z,23.1
2023-03-05T12:01:02.168Z,23.0
2023-03-05T12:02:00.834Z,23.0
2023-03-05T12:03:03.393Z,22.9
2023-03-05T12:04:01.168Z,22.1
2023-03-05T12:05:00.816Z,22.0
2023-03-05T12:06:06.330Z,21.9
2023-03-05T12:07:01.915Z,22.0
2023-03-05T12:08:01.109Z,21.8
2023-03-05T12:09:02.697Z,21.8
2023-03-05T12:10:01.178Z,21.5
2023-03-05T12:11:04.775Z,21.6
2023-03-05T12:12:08.258Z,21.7
2023-03-05T12:13:10.690Z,21.6
2023-03-05T12:14:01.820Z,21.7
2023-03-05T12:15:10.644Z,21.6
2023-03-05T12:16:04.186Z,21.3
2023-03-05T12:17:09.428Z,21.3
2023-03-05T12:18:06.920Z,21.5
2023-03-05T12:19:00.788Z,21.5
2023-03-05T12:20:08.270Z,21.4
2023-03-05T12:21:08.202Z,21.4
2023-03-05T12:22:01.178Z,21.3
2023-03-05T12:23:01.056Z,21.3
2023-03-05T12:24:01.818Z,21.3
2023-03-05T12:25:10.653Z,21.2
2023-03-05T12:26:00.802Z,21.1
2023-03-05T12:27:00.767Z,21.1
2023-03-05T12:28:01.372Z,20.8
2023-03-05T12:29:00.834Z,20.3
2023-03-05T12:30:01.105Z,20.4
2023-03-05T12:31:00.928Z,20.3
2023-03-05T12:32:01.315Z,20.5
2023-03-05T12:33:01.717Z,20.6
2023-03-05T12:34:10.648Z,20.6
2023-03-05T12:35:01.809Z,20.3
2023-03-05T12:36:10.649Z,20.5
2023-03-05T12:37:00.820Z,20.5
2023-03-05T12:38:02.932Z,20.7
2023-03-05T12:39:01.146Z,20.8
2023-03-05T12:40:10.651Z,20.9
2023-03-05T12:41:10.683Z,20.9
2023-03-05T12:42:10.656Z,21.0
2023-03-05T12:43:01.690Z,20.9
2023-03-05T12:44:04.117Z,20.7
2023-03-05T12:45:10.680Z,20.8
2023-03-05T12:46:10.667Z,20.9
2023-03-05T12:47:10.654Z,21.0
2023-03-05T12:48:00.767Z,21.3
2023-03-05T12:49:10.723Z,21.1
2023-03-05T12:50:00.949Z,21.0
2023-03-05T12:51:00.870Z,20.9
2023-03-05T12:52:02.986Z,21.0
2023-03-05T12:53:10.656Z,21.0
2023-03-05T12:54:10.655Z,21.0
2023-03-05T12:55:00.780Z,20.7
2023-03-05T12:56:04.148Z,20.7
2023-03-05T12:57:03.140Z,20.8
2023-03-05T12:58:04.221Z,20.7
2023-03-05T12:59:02.586Z,20.8
2023-03-05T13:00:05.007Z,20.8
2023-03-05T13:01:01.930Z,20.8
2023-03-05T13:02:03.421Z,20.7
2023-03-05T13:03:02.893Z,20.5
2023-03-05T13:04:03.530Z,20.6
2023-03-05T13:05:03.538Z,20.6
2023-03-05T13:06:00.810Z,20.6
2023-03-05T13:07:02.840Z,20.5
2023-03-05T13:08:09.286Z,20.3
2023-03-05T13:09:02.729Z,20.1
2023-03-05T13:10:00.827Z,20.1
2023-03-05T13:11:02.699Z,20.2
2023-03-05T13:12:02.646Z,20.4
2023-03-05T13:13:00.944Z,20.4
2023-03-05T13:14:01.155Z,20.5
2023-03-05T13:15:05.145Z,20.5
2023-03-05T13:16:00.883Z,20.6
2023-03-05T13:17:01.854Z,20.7
2023-03-05T13:18:02.644Z,20.7
2023-03-05T13:19:01.171Z,20.4
2023-03-05T13:20:02.763Z,20.4
2023-03-05T13:21:05.960Z,20.4
2023-03-05T13:22:02.096Z,20.4
2023-03-05T13:23:02.926Z,20.6
2023-03-05T13:24:01.862Z,20.7
2023-03-05T13:25:04.375Z,20.6
2023-03-05T13:26:02.347Z,20.7
2023-03-05T13:27:00.816Z,20.5
2023-03-05T13:28:02.721Z,20.6
2023-03-05T13:29:10.682Z,20.8
2023-03-05T13:30:00.786Z,20.9
2023-03-05T13:31:02.879Z,21.1
2023-03-05T13:32:01.970Z,21.1
2023-03-05T13:33:01.879Z,21.3
2023-03-05T13:34:10.659Z,21.2
2023-03-05T13:35:01.011Z,21.4